createdAt,value
2023-05-16T00:04:28.687Z,7.25
2023-05-16T00:09:31.291Z,6.97
2023-05-16T00:14:36.384Z,6.45
2023-05-16T00:19:40.246Z,6.55
2023-05-16T00:24:42.860Z,6.50
2023-05-16T00:29:46.988Z,7.00
2023-05-16T00:34:49.559Z,6.93
2023-05-16T00:39:52.140Z,7.72
2023-05-16T00:44:56.430Z,9.07
2023-05-16T00:49:59.184Z,8.73
2023-05-16T00:55:02.137Z,8.90
2023-05-16T01:00:09.772Z,7.82
2023-05-16T01:05:13.056Z,7.45
2023-05-16T01:10:16.259Z,12.55
2023-05-16T01:15:23.301Z,7.53
2023-05-16T01:20:34.597Z,9.00
2023-05-16T01:25:46.884Z,9.32
2023-05-16T01:30:51.897Z,10.90
2023-05-16T01:35:56.847Z,8.30
2023-05-16T01:41:03.715Z,8.82
2023-05-16T01:46:10.652Z,8.80
2023-05-16T01:51:14.182Z,7.97
2023-05-16T01:56:17.330Z,9.68
2023-05-16T02:01:21.515Z,8.48
2023-05-16T02:06:25.809Z,9.93
2023-05-16T02:11:28.378Z,7.90
2023-05-16T02:16:32.464Z,7.80
2023-05-16T02:21:35.053Z,6.95
2023-05-16T02:26:37.602Z,9.38
2023-05-16T02:31:42.717Z,7.32
2023-05-16T02:36:45.457Z,10.65
2023-05-16T02:41:47.979Z,8.02
2023-05-16T02:46:52.617Z,7.75
2023-05-16T02:51:55.252Z,7.93
2023-05-16T02:56:57.894Z,8.40
2023-05-16T03:02:01.973Z,8.88
2023-05-16T03:07:04.723Z,12.82
2023-05-16T03:12:07.506Z,14.77
2023-05-16T03:17:12.099Z,15.25
2023-05-16T03:22:14.659Z,13.10
2023-05-16T03:27:18.797Z,18.63
2023-05-16T03:32:22.776Z,18.75
2023-05-16T03:37:25.971Z,20.10
2023-05-16T03:42:28.618Z,18.30
2023-05-16T03:47:32.543Z,22.30
2023-05-16T03:52:35.096Z,19.70
2023-05-16T03:57:38.504Z,22.33
2023-05-16T04:02:43.933Z,19.05
2023-05-16T04:07:46.630Z,19.98
2023-05-16T04:12:49.286Z,16.65
2023-05-16T04:17:53.248Z,16.10
2023-05-16T04:22:56.217Z,15.02
2023-05-16T04:27:58.803Z,15.50
2023-05-16T04:33:02.910Z,17.02
2023-05-16T04:38:05.560Z,14.30
2023-05-16T04:43:08.229Z,12.60
2023-05-16T04:48:13.597Z,12.98
2023-05-16T04:53:16.317Z,13.20
2023-05-16T04:58:18.887Z,12.57
2023-05-16T05:03:22.827Z,10.75
2023-05-16T05:08:25.385Z,9.63
2023-05-16T05:13:27.938Z,10.82
2023-05-16T05:18:32.107Z,10.48
2023-05-16T05:23:35.720Z,11.30
2023-05-16T05:28:38.936Z,11.10
2023-05-16T05:33:42.835Z,12.60
2023-05-16T05:38:45.594Z,12.25
2023-05-16T05:43:48.198Z,9.23
2023-05-16T05:48:52.245Z,11.23
2023-05-16T05:53:55.293Z,10.60
2023-05-16T05:58:57.916Z,9.02
2023-05-16T06:04:02.540Z,8.48
2023-05-16T06:09:05.214Z,10.63
2023-05-16T06:14:08.001Z,11.43
2023-05-16T06:19:15.926Z,9.60
2023-05-16T06:24:18.915Z,7.88
2023-05-16T06:29:21.599Z,8.02
2023-05-16T06:34:28.239Z,8.85
2023-05-16T06:39:30.843Z,8.75
2023-05-16T06:44:33.769Z,6.63
2023-05-16T06:49:37.855Z,6.25
2023-05-16T06:54:40.559Z,6.97
2023-05-16T06:59:46.704Z,6.28
2023-05-16T07:04:50.824Z,5.22
2023-05-16T07:09:53.532Z,5.47
2023-05-16T07:14:56.254Z,7.68
2023-05-16T07:20:01.840Z,7.10
2023-05-16T07:25:06.771Z,4.70
2023-05-16T07:30:10.405Z,6.45
2023-05-16T07:35:14.678Z,3.80
2023-05-16T07:40:18.308Z,9.48
2023-05-16T07:45:21.361Z,6.18
2023-05-16T07:50:25.356Z,4.93
2023-05-16T07:55:28.321Z,6.15
2023-05-16T08:00:31.274Z,7.22
2023-05-16T08:05:35.428Z,7.25
2023-05-16T08:10:38.007Z,5.22
2023-05-16T08:15:41.140Z,6.40
2023-05-16T08:20:45.426Z,4.93
2023-05-16T08:25:48.361Z,4.15
2023-05-16T08:30:51.128Z,3.85
2023-05-16T08:35:55.246Z,4.97
2023-05-16T08:40:58.052Z,4.80
2023-05-16T08:46:00.784Z,4.35
2023-05-16T08:51:07.576Z,6.30
2023-05-16T08:56:10.427Z,6.18
2023-05-16T09:01:13.525Z,5.93
2023-05-16T09:06:17.994Z,4.30
2023-05-16T09:11:21.786Z,3.03
2023-05-16T09:16:24.529Z,3.58
2023-05-16T09:21:36.452Z,4.10
2023-05-16T09:26:45.848Z,3.78
2023-05-16T09:31:55.714Z,3.58
2023-05-16T09:37:03.032Z,2.30
2023-05-16T09:42:14.488Z,3.03
2023-05-16T09:47:19.956Z,2.15
2023-05-16T09:52:23.983Z,3.10
2023-05-16T09:57:27.234Z,1.85
2023-05-16T10:02:29.967Z,2.42
2023-05-16T10:07:34.418Z,4.20
2023-05-16T10:12:37.977Z,3.35
2023-05-16T10:17:41.287Z,2.25
2023-05-16T10:22:45.438Z,1.65
2023-05-16T10:27:48.485Z,3.03
2023-05-16T10:32:51.615Z,4.15
2023-05-16T10:37:56.132Z,3.08
2023-05-16T10:42:59.145Z,3.30
2023-05-16T10:48:04.119Z,4.22
2023-05-16T10:53:15.639Z,5.45
2023-05-16T10:58:25.158Z,4.97
2023-05-16T11:03:29.577Z,5.32
2023-05-16T11:08:35.768Z,2.08
2023-05-16T11:13:54.837Z,3.42
2023-05-16T11:19:05.343Z,3.90
2023-05-16T11:24:38.074Z,6.55
2023-05-16T11:29:42.087Z,4.35
2023-05-16T11:34:45.574Z,3.45
2023-05-16T11:39:48.977Z,3.15
2023-05-16T11:45:04.450Z,3.20
2023-05-16T11:50:07.854Z,6.20
2023-05-16T11:55:11.557Z,4.90
2023-05-16T12:00:20.474Z,3.80
2023-05-16T12:05:25.551Z,3.45
2023-05-16T12:10:28.940Z,9.90
2023-05-16T12:15:33.371Z,4.03
2023-05-16T12:20:36.174Z,7.43
2023-05-16T12:25:43.774Z,7.15
2023-05-16T12:30:48.769Z,3.42
2023-05-16T12:35:52.968Z,4.70
2023-05-16T12:40:59.460Z,7.45
2023-05-16T12:46:03.658Z,4.75
2023-05-16T12:51:13.849Z,6.00
2023-05-16T12:56:17.721Z,6.05
2023-05-16T13:01:28.999Z,2.95
2023-05-16T13:06:55.647Z,5.57
2023-05-16T13:12:00.860Z,7.50
2023-05-16T13:17:05.068Z,15.13
2023-05-16T13:22:07.856Z,3.97
2023-05-16T13:27:12.541Z,6.38
2023-05-16T13:32:17.851Z,4.55
2023-05-16T13:37:20.855Z,4.22
2023-05-16T13:42:28.088Z,4.97
2023-05-16T13:47:32.827Z,4.35
2023-05-16T13:52:37.902Z,5.70
2023-05-16T13:57:41.429Z,5.65
2023-05-16T14:02:46.188Z,5.82
2023-05-16T14:07:49.118Z,2.95
2023-05-16T14:12:52.076Z,4.53
2023-05-16T14:17:56.278Z,4.65
2023-05-16T14:22:59.248Z,6.00
2023-05-16T14:28:02.222Z,4.72
2023-05-16T14:33:06.677Z,6.65
2023-05-16T14:38:10.035Z,5.47
2023-05-16T14:43:12.869Z,2.60
2023-05-16T14:48:17.671Z,4.20
2023-05-16T14:53:21.507Z,6.65
2023-05-16T14:58:24.188Z,5.50
2023-05-16T15:03:28.182Z,3.35
2023-05-16T15:08:31.694Z,2.92
2023-05-16T15:13:35.817Z,5.38
2023-05-16T15:18:40.486Z,3.67
2023-05-16T15:23:43.507Z,4.35
2023-05-16T15:28:46.221Z,7.68
2023-05-16T15:33:50.193Z,3.17
2023-05-16T15:38:52.970Z,5.60
2023-05-16T15:43:55.617Z,5.60
2023-05-16T15:48:59.821Z,2.50
2023-05-16T15:54:02.640Z,2.65
2023-05-16T15:59:05.307Z,3.72
2023-05-16T16:04:09.237Z,2.03
2023-05-16T16:09:12.105Z,2.83
2023-05-16T16:14:14.793Z,2.80
2023-05-16T16:19:19.036Z,4.93
2023-05-16T16:24:21.708Z,6.00
2023-05-16T16:29:26.064Z,1.85
2023-05-16T16:34:31.260Z,3.05
2023-05-16T16:39:34.516Z,4.10
2023-05-16T16:44:37.340Z,2.58
2023-05-16T16:49:42.674Z,4.50
2023-05-16T16:54:45.422Z,1.17
2023-05-16T16:59:49.004Z,1.42
2023-05-16T17:04:53.039Z,3.95
2023-05-16T17:09:56.256Z,9.13
2023-05-16T17:14:59.055Z,4.22
2023-05-16T17:20:06.847Z,4.57
2023-05-16T17:25:09.854Z,0.93
2023-05-16T17:30:13.205Z,2.65
2023-05-16T17:35:17.452Z,4.57
2023-05-16T17:40:20.795Z,4.65
2023-05-16T17:45:23.548Z,2.25
2023-05-16T17:50:28.631Z,2.40
2023-05-16T17:55:33.199Z,1.10
2023-05-16T18:00:36.809Z,2.03
2023-05-16T18:05:41.216Z,3.28
2023-05-16T18:15:52.893Z,0.85
2023-05-16T18:20:56.854Z,4.25
2023-05-16T18:25:59.736Z,3.80
2023-05-16T18:31:03.168Z,3.58
2023-05-16T18:36:08.256Z,1.60
2023-05-16T18:41:11.247Z,2.58
2023-05-16T18:46:14.064Z,4.28
2023-05-16T18:51:18.101Z,2.70
2023-05-16T18:56:26.560Z,2.42
2023-05-16T19:01:29.838Z,5.00
2023-05-16T19:06:33.848Z,2.92
2023-05-16T19:11:48.117Z,1.23
2023-05-16T19:16:57.613Z,2.85
2023-05-16T19:22:01.805Z,1.58
2023-05-16T19:27:04.648Z,1.95
2023-05-16T19:32:07.845Z,1.83
2023-05-16T19:37:11.908Z,1.83
2023-05-16T19:42:14.598Z,1.73
2023-05-16T19:47:17.258Z,1.10
2023-05-16T19:52:21.273Z,0.82
2023-05-16T19:57:23.933Z,1.33
2023-05-16T20:02:26.516Z,1.88
2023-05-16T20:07:30.580Z,3.50
2023-05-16T20:12:33.755Z,4.45
2023-05-16T20:17:36.900Z,2.08
2023-05-16T20:22:41.692Z,7.05
2023-05-16T20:27:44.543Z,2.80
2023-05-16T20:32:47.341Z,1.17
2023-05-16T20:37:51.361Z,2.20
2023-05-16T20:42:54.873Z,2.22
2023-05-16T20:47:57.705Z,2.30
2023-05-16T20:53:01.838Z,2.58
2023-05-16T20:58:04.485Z,1.48
2023-05-16T21:03:07.220Z,2.38
2023-05-16T21:08:11.188Z,3.47
2023-05-16T21:13:13.802Z,1.30
2023-05-16T21:18:16.703Z,2.60
2023-05-16T21:23:20.933Z,5.97
2023-05-16T21:28:23.547Z,3.10
2023-05-16T21:33:26.280Z,2.75
2023-05-16T21:38:30.364Z,1.08
2023-05-16T21:43:33.024Z,2.97
2023-05-16T21:48:36.052Z,1.88
2023-05-16T21:53:40.158Z,2.25
2023-05-16T21:58:43.311Z,4.95
2023-05-16T22:03:46.045Z,2.05
2023-05-16T22:08:50.030Z,3.60
2023-05-16T22:13:52.714Z,1.17
2023-05-16T22:18:55.599Z,2.30
2023-05-16T22:23:59.615Z,3.33
2023-05-16T22:29:02.283Z,4.15
2023-05-16T22:34:04.918Z,3.05
2023-05-16T22:39:09.212Z,1.95
2023-05-16T22:44:11.802Z,3.30
2023-05-16T22:49:14.890Z,2.53
2023-05-16T22:54:18.826Z,2.13
2023-05-16T22:59:21.569Z,2.83
2023-05-16T23:04:24.225Z,2.50
2023-05-16T23:09:28.317Z,3.15
2023-05-16T23:14:30.934Z,2.40
2023-05-16T23:19:33.791Z,2.25
2023-05-16T23:24:37.839Z,2.10
2023-05-16T23:29:40.469Z,2.10
2023-05-16T23:34:43.162Z,3.60
2023-05-16T23:39:47.134Z,3.90
2023-05-16T23:44:49.771Z,3.45
2023-05-16T23:49:52.349Z,2.40
2023-05-16T23:54:56.376Z,2.72
2023-05-16T23:59:58.945Z,2.30
